createdAt,value
2022-11-18T00:00:23.506Z,22.18
2022-11-18T00:02:29.653Z,22.65
2022-11-18T00:04:35.479Z,21.24
2022-11-18T00:06:42.457Z,22.03
2022-11-18T00:08:50.887Z,21.13
2022-11-18T00:10:59.337Z,18.29
2022-11-18T00:13:18.258Z,19.16
2022-11-18T00:15:28.953Z,19.03
2022-11-18T00:17:37.191Z,17.49
2022-11-18T00:19:44.106Z,18.01
2022-11-18T00:21:50.023Z,17.83
2022-11-18T00:23:55.855Z,17.24
2022-11-18T00:26:09.853Z,17.61
2022-11-18T00:28:15.620Z,17.47
2022-11-18T00:30:23.065Z,17.47
2022-11-18T00:32:29.631Z,17.39
2022-11-18T00:34:35.425Z,18.59
2022-11-18T00:36:43.047Z,17.82
2022-11-18T00:38:49.585Z,24.86
2022-11-18T00:41:03.161Z,25.43
2022-11-18T00:43:08.913Z,18.81
2022-11-18T00:45:15.585Z,18.86
2022-11-18T00:47:21.397Z,18.41
2022-11-18T00:49:28.042Z,20.35
2022-11-18T00:51:34.538Z,25.29
2022-11-18T00:53:40.249Z,24.12
2022-11-18T00:55:46.269Z,24.06
2022-11-18T00:57:52.923Z,24.47
2022-11-18T01:00:09.210Z,25.93
2022-11-18T01:02:33.374Z,25.07
2022-11-18T01:04:39.976Z,24.87
2022-11-18T01:06:45.692Z,22.36
2022-11-18T01:08:51.484Z,17.93
2022-11-18T01:11:18.058Z,20.05
2022-11-18T01:13:24.048Z,18.01
2022-11-18T01:15:32.527Z,17.34
2022-11-18T01:17:45.887Z,16.22
2022-11-18T01:19:51.856Z,17.37
2022-11-18T01:22:09.236Z,17.55
2022-11-18T01:24:22.288Z,17.41
2022-11-18T01:26:28.020Z,16.89
2022-11-18T01:28:33.829Z,16.76
2022-11-18T01:30:44.868Z,17.99
2022-11-18T01:48:08.806Z,26.95
2022-11-18T01:50:19.639Z,27.05
2022-11-18T01:52:26.916Z,25.92
2022-11-18T01:54:39.404Z,26.68
2022-11-18T01:56:53.175Z,26.59
2022-11-18T01:59:08.550Z,27.11
2022-11-18T02:01:17.155Z,25.95
2022-11-18T02:03:33.524Z,26.76
2022-11-18T02:05:46.127Z,25.27
2022-11-18T02:07:54.222Z,25.47
2022-11-18T02:10:11.774Z,27.18
2022-11-18T02:15:14.480Z,20.76
2022-11-18T02:17:44.285Z,20.02
2022-11-18T02:20:21.893Z,19.34
2022-11-18T02:23:00.898Z,19.20
2022-11-18T02:25:24.973Z,20.49
2022-11-18T02:28:20.627Z,20.05
2022-11-18T02:30:29.077Z,19.94
2022-11-18T02:32:45.049Z,18.94
2022-11-18T02:35:05.546Z,19.07
2022-11-18T02:37:25.115Z,18.60
2022-11-18T02:39:41.371Z,20.23
2022-11-18T02:41:52.666Z,18.29
2022-11-18T02:44:07.663Z,18.16
2022-11-18T02:46:26.920Z,17.27
2022-11-18T04:35:23.517Z,21.00
2022-11-18T04:37:30.339Z,20.29
2022-11-18T04:39:36.381Z,20.65
2022-11-18T04:41:54.457Z,19.86
2022-11-18T04:44:13.356Z,21.40
2022-11-18T04:46:19.251Z,22.06
2022-11-18T04:48:27.034Z,21.73
2022-11-18T04:50:42.866Z,21.99
2022-11-18T04:52:48.586Z,22.09
2022-11-18T04:54:54.257Z,22.15
2022-11-18T04:57:01.438Z,21.45
2022-11-18T04:59:08.895Z,23.01
2022-11-18T05:01:14.674Z,23.40
2022-11-18T05:03:21.208Z,24.22
2022-11-18T05:05:26.935Z,24.00
2022-11-18T05:07:35.252Z,23.54
2022-11-18T05:09:41.807Z,23.82
2022-11-18T05:12:01.033Z,23.30
2022-11-18T05:14:06.792Z,23.27
2022-11-18T05:16:13.321Z,22.25
2022-11-18T05:18:19.185Z,23.77
2022-11-18T05:20:25.014Z,23.50
2022-11-18T05:22:40.854Z,22.38
2022-11-18T05:24:49.952Z,23.12
2022-11-18T05:26:56.168Z,22.91
2022-11-18T05:29:09.909Z,23.27
2022-11-18T05:31:19.540Z,24.89
2022-11-18T05:33:32.768Z,25.36
2022-11-18T05:35:40.626Z,25.32
2022-11-18T05:37:48.966Z,20.69
2022-11-18T05:39:54.778Z,19.88
2022-11-18T05:42:19.888Z,20.73
2022-11-18T05:44:28.539Z,20.04
2022-11-18T05:46:35.599Z,20.12
2022-11-18T05:48:42.253Z,20.55
2022-11-18T05:50:54.488Z,22.04
2022-11-18T05:53:02.966Z,21.89
2022-11-18T05:55:12.275Z,21.52
2022-11-18T05:57:18.107Z,21.88
2022-11-18T05:59:24.595Z,21.58
2022-11-18T06:01:40.563Z,22.05
2022-11-18T06:03:46.913Z,22.14
2022-11-18T06:05:56.200Z,22.09
2022-11-18T06:08:12.751Z,22.18
2022-11-18T06:10:27.683Z,22.68
2022-11-18T06:12:48.444Z,22.90
2022-11-18T06:15:03.892Z,22.76
2022-11-18T06:17:21.963Z,23.83
2022-11-18T06:19:34.956Z,23.65
2022-11-18T06:21:41.758Z,24.07
2022-11-18T06:23:51.311Z,24.77
2022-11-18T06:26:02.468Z,24.79
2022-11-18T06:28:09.309Z,24.14
2022-11-18T06:30:17.201Z,23.51
2022-11-18T06:32:29.610Z,24.57
2022-11-18T06:34:41.247Z,24.84
2022-11-18T06:36:47.716Z,25.72
2022-11-18T06:38:56.131Z,26.03
2022-11-18T06:41:09.599Z,25.93
2022-11-18T06:43:28.564Z,26.30
2022-11-18T06:45:34.609Z,27.75
2022-11-18T06:47:38.691Z,28.42
2022-11-18T06:49:44.502Z,27.79
2022-11-18T06:51:50.296Z,26.97
2022-11-18T06:53:59.789Z,27.19
2022-11-18T06:56:20.053Z,26.28
2022-11-18T06:58:25.745Z,27.03
2022-11-18T07:00:32.378Z,26.68
2022-11-18T07:02:39.930Z,27.09
2022-11-18T07:04:45.651Z,26.01
2022-11-18T07:06:52.499Z,26.93
2022-11-18T07:09:03.852Z,26.83
2022-11-18T07:11:14.781Z,25.85
2022-11-18T07:13:21.347Z,24.41
2022-11-18T07:15:42.489Z,26.25
2022-11-18T07:17:48.171Z,25.94
2022-11-18T07:19:56.525Z,25.40
2022-11-18T07:22:02.470Z,25.14
2022-11-18T07:24:18.729Z,26.15
2022-11-18T07:26:26.244Z,25.35
2022-11-18T07:28:33.745Z,24.07
2022-11-18T07:30:39.494Z,24.30
2022-11-18T07:32:46.023Z,27.07
2022-11-18T07:34:55.626Z,28.03
2022-11-18T07:37:01.345Z,27.57
2022-11-18T07:39:11.569Z,26.96
2022-11-18T07:41:20.072Z,24.39
2022-11-18T07:43:25.939Z,25.86
2022-11-18T07:45:32.647Z,25.07
2022-11-18T07:47:38.408Z,23.77
2022-11-18T07:49:44.227Z,21.52
2022-11-18T07:51:50.769Z,23.81
2022-11-18T07:53:57.507Z,23.83
2022-11-18T07:56:13.495Z,23.44
2022-11-18T07:58:20.052Z,23.57
2022-11-18T08:00:26.434Z,25.26
2022-11-18T08:02:32.360Z,24.35
2022-11-18T08:04:40.979Z,24.82
2022-11-18T08:06:46.751Z,23.30
2022-11-18T08:08:52.556Z,26.41
2022-11-18T08:11:00.104Z,25.02
2022-11-18T08:13:08.510Z,22.39
2022-11-18T08:15:20.638Z,20.67
2022-11-18T08:17:27.304Z,18.98
2022-11-18T08:19:37.516Z,19.45
2022-11-18T08:21:43.279Z,20.89
2022-11-18T08:23:54.205Z,21.35
2022-11-18T08:26:07.092Z,21.53
2022-11-18T08:28:17.704Z,21.26
2022-11-18T08:30:24.655Z,23.71
2022-11-18T08:32:30.780Z,25.99
2022-11-18T08:34:36.716Z,26.32
2022-11-18T08:36:43.773Z,26.91
2022-11-18T08:38:49.440Z,23.19
2022-11-18T08:40:55.895Z,25.14
2022-11-18T08:43:02.391Z,26.29
2022-11-18T08:45:12.290Z,27.90
2022-11-18T08:47:20.875Z,24.67
2022-11-18T08:49:32.235Z,26.03
2022-11-18T08:51:38.255Z,24.08
2022-11-18T08:53:43.970Z,24.43
2022-11-18T08:55:59.580Z,23.29
2022-11-18T08:58:05.305Z,23.78
2022-11-18T09:00:16.511Z,24.84
2022-11-18T09:02:26.774Z,24.40
2022-11-18T09:04:32.748Z,23.30
2022-11-18T09:06:46.462Z,23.66
2022-11-18T09:08:53.207Z,22.96
2022-11-18T09:10:58.986Z,21.12
2022-11-18T09:13:25.271Z,20.89
2022-11-18T09:15:36.946Z,20.99
2022-11-18T09:17:42.644Z,22.48
2022-11-18T09:19:48.643Z,23.32
2022-11-18T09:22:02.923Z,24.78
2022-11-18T09:24:17.076Z,25.03
2022-11-18T09:26:26.719Z,25.12
2022-11-18T09:28:36.211Z,22.62
2022-11-18T09:30:46.326Z,25.47
2022-11-18T09:32:58.953Z,21.86
2022-11-18T09:35:05.990Z,24.93
2022-11-18T09:39:16.359Z,23.75
2022-11-18T09:41:46.784Z,26.32
2022-11-18T09:44:16.798Z,26.69
2022-11-18T09:46:36.861Z,28.16
2022-11-18T09:48:55.048Z,26.34
2022-11-18T09:51:01.464Z,25.71
2022-11-18T09:53:22.118Z,24.27
2022-11-18T09:55:33.470Z,25.77
2022-11-18T09:57:46.963Z,25.28
2022-11-18T09:59:54.961Z,25.29
2022-11-18T10:02:29.875Z,23.43
2022-11-18T10:04:35.584Z,25.06
2022-11-18T10:06:42.295Z,26.12
2022-11-18T10:09:16.366Z,26.55
2022-11-18T10:11:31.920Z,27.69
2022-11-18T10:13:58.582Z,30.73
2022-11-18T10:16:30.665Z,27.96
2022-11-18T10:19:00.334Z,25.75
2022-11-18T10:21:27.553Z,23.33
2022-11-18T10:23:54.094Z,25.39
2022-11-18T10:25:59.959Z,24.37
2022-11-18T10:28:29.701Z,24.14
2022-11-18T10:30:35.822Z,25.85
2022-11-18T10:32:58.109Z,25.47
2022-11-18T10:35:04.611Z,25.81
2022-11-18T10:37:38.655Z,25.27
2022-11-18T10:39:56.255Z,27.88
2022-11-18T10:42:09.775Z,28.14
2022-11-18T10:44:40.329Z,28.03
2022-11-18T10:46:46.840Z,28.63
2022-11-18T10:49:19.016Z,34.50
2022-11-18T10:51:28.022Z,35.54
2022-11-18T10:53:39.163Z,36.63
2022-11-18T10:56:01.122Z,37.00
2022-11-18T10:58:22.234Z,37.13
2022-11-18T11:00:48.647Z,36.05
2022-11-18T11:02:56.394Z,36.22
2022-11-18T11:05:07.495Z,36.36
2022-11-18T11:07:32.284Z,37.88
2022-11-18T11:09:45.247Z,41.33
2022-11-18T11:12:04.980Z,38.07
2022-11-18T11:14:26.503Z,38.06
2022-11-18T11:16:50.993Z,38.42
2022-11-18T11:19:05.297Z,35.75
2022-11-18T11:21:17.793Z,35.97
2022-11-18T11:23:28.138Z,35.38
2022-11-18T11:28:30.535Z,36.97
2022-11-18T11:30:49.207Z,37.13
2022-11-18T11:33:24.996Z,37.81
2022-11-18T11:35:45.733Z,37.19
2022-11-18T11:37:58.893Z,38.83
2022-11-18T11:40:29.608Z,40.50
2022-11-18T11:42:59.126Z,40.49
2022-11-18T11:45:27.033Z,41.66
2022-11-18T11:47:57.166Z,41.42
2022-11-18T11:50:25.547Z,40.72
2022-11-18T11:52:48.403Z,39.73
2022-11-18T11:55:18.765Z,42.17
2022-11-18T11:57:48.252Z,37.73
2022-11-18T12:00:08.030Z,38.14
2022-11-18T12:02:56.625Z,36.56
2022-11-18T12:05:24.276Z,36.34
2022-11-18T12:07:41.321Z,37.50
2022-11-18T12:10:23.989Z,38.46
2022-11-18T12:12:47.818Z,35.85
2022-11-18T12:15:07.909Z,36.41
2022-11-18T12:17:29.003Z,37.38
2022-11-18T12:19:42.540Z,36.72
2022-11-18T12:22:07.829Z,37.23
2022-11-18T12:24:37.172Z,36.02
2022-11-18T12:26:43.997Z,38.07
2022-11-18T12:28:50.219Z,39.18
2022-11-18T12:31:39.069Z,36.40
2022-11-18T12:33:48.320Z,39.26
2022-11-18T12:35:55.299Z,39.80
2022-11-18T12:38:06.193Z,37.61
2022-11-18T12:40:33.460Z,37.84
2022-11-18T12:43:00.988Z,38.37
2022-11-18T12:46:03.118Z,39.31
2022-11-18T12:48:46.255Z,40.06
2022-11-18T12:50:54.591Z,40.40
2022-11-18T12:53:00.255Z,37.99
2022-11-18T12:55:21.701Z,38.69
2022-11-18T12:57:33.189Z,37.03
2022-11-18T12:59:41.659Z,35.82
2022-11-18T13:01:48.443Z,35.42
2022-11-18T13:03:55.630Z,36.08
2022-11-18T13:06:09.547Z,37.56
2022-11-18T13:08:21.057Z,36.61
2022-11-18T13:10:35.250Z,40.35
2022-11-18T13:12:41.111Z,37.78
2022-11-18T13:15:01.292Z,36.13
2022-11-18T13:17:43.423Z,33.40
2022-11-18T13:20:01.113Z,34.39
2022-11-18T13:22:31.583Z,32.95
2022-11-18T13:24:48.882Z,31.28
2022-11-18T13:27:04.842Z,35.63
2022-11-18T13:29:38.837Z,35.71
2022-11-18T13:32:05.740Z,36.36
2022-11-18T13:34:21.792Z,36.34
2022-11-18T13:36:29.607Z,33.90
2022-11-18T13:38:35.510Z,32.88
2022-11-18T13:41:04.726Z,33.57
2022-11-18T13:43:15.565Z,36.33
2022-11-18T13:45:23.323Z,34.92
2022-11-18T13:47:44.607Z,33.56
2022-11-18T13:50:03.467Z,33.07
2022-11-18T13:52:16.292Z,33.53
2022-11-18T13:54:30.340Z,35.99
2022-11-18T13:56:37.078Z,35.12
2022-11-18T14:01:26.676Z,34.32
2022-11-18T14:03:39.862Z,31.55
2022-11-18T14:05:45.523Z,29.99
2022-11-18T14:08:09.177Z,33.05
2022-11-18T14:10:19.294Z,33.34
2022-11-18T14:12:29.196Z,32.38
2022-11-18T14:14:41.458Z,33.88
2022-11-18T14:16:47.292Z,35.50
2022-11-18T14:18:55.110Z,35.79
2022-11-18T14:21:04.616Z,36.74
2022-11-18T14:23:20.932Z,35.88
2022-11-18T14:25:34.355Z,37.19
2022-11-18T14:27:45.590Z,37.60
2022-11-18T14:29:55.805Z,38.07
2022-11-18T14:32:23.602Z,36.99
2022-11-18T14:34:31.300Z,35.69
2022-11-18T14:40:49.524Z,36.46
2022-11-18T14:42:55.241Z,38.22
2022-11-18T14:45:01.048Z,38.90
2022-11-18T14:47:27.072Z,40.63
2022-11-18T14:49:34.939Z,38.41
2022-11-18T14:51:40.722Z,38.72
2022-11-18T14:53:49.863Z,38.97
2022-11-18T14:56:01.595Z,39.20
2022-11-18T14:58:07.354Z,37.99
2022-11-18T15:00:19.830Z,36.07
2022-11-18T15:02:26.606Z,35.48
2022-11-18T15:04:32.363Z,36.69
2022-11-18T15:06:40.076Z,37.13
2022-11-18T15:08:51.642Z,35.85
2022-11-18T15:10:57.298Z,37.59
2022-11-18T15:13:04.232Z,46.31
2022-11-18T15:15:11.031Z,51.49
2022-11-18T15:17:22.474Z,38.56
2022-11-18T15:19:32.281Z,40.46
2022-11-18T15:21:38.117Z,38.93
2022-11-18T15:23:44.276Z,34.87
2022-11-18T15:25:53.462Z,35.11
2022-11-18T15:27:59.180Z,35.52
2022-11-18T15:30:05.553Z,34.21
2022-11-18T15:32:18.790Z,30.31
2022-11-18T15:34:25.001Z,30.06
2022-11-18T15:36:37.981Z,30.59
2022-11-18T15:38:56.015Z,28.53
2022-11-18T15:41:04.380Z,27.15
2022-11-18T15:43:10.216Z,25.24
2022-11-18T15:45:16.782Z,25.34
2022-11-18T15:47:22.604Z,28.71
2022-11-18T15:49:28.669Z,30.60
2022-11-18T15:51:35.330Z,28.79
2022-11-18T15:53:41.268Z,29.57
2022-11-18T15:55:47.076Z,32.28
2022-11-18T15:57:56.241Z,31.95
2022-11-18T16:00:08.111Z,29.16
2022-11-18T16:02:18.204Z,34.47
2022-11-18T16:04:24.787Z,33.75
2022-11-18T16:06:31.030Z,32.77
2022-11-18T16:08:36.709Z,34.87
2022-11-18T16:10:55.570Z,44.01
2022-11-18T16:13:03.879Z,38.00
2022-11-18T16:15:29.331Z,32.43
2022-11-18T16:17:38.202Z,31.64
2022-11-18T16:19:44.011Z,28.93
2022-11-18T16:21:53.439Z,30.44
2022-11-18T16:24:05.974Z,26.88
2022-11-18T16:26:11.750Z,27.27
2022-11-18T16:28:20.159Z,28.53
2022-11-18T16:30:39.168Z,28.43
2022-11-18T16:32:44.812Z,30.66
2022-11-18T16:34:51.795Z,30.29
2022-11-18T16:37:02.848Z,33.44
2022-11-18T16:39:32.019Z,32.38
2022-11-18T16:42:08.050Z,29.66
2022-11-18T16:44:19.498Z,30.72
2022-11-18T16:46:25.147Z,30.95
2022-11-18T16:48:30.995Z,32.44
2022-11-18T16:52:05.021Z,30.26
2022-11-18T16:54:20.990Z,31.73
2022-11-18T16:56:29.916Z,33.11
2022-11-18T16:58:42.329Z,33.37
2022-11-18T17:01:16.835Z,35.92
2022-11-18T17:03:14.517Z,36.26
2022-11-18T17:05:20.308Z,32.78
2022-11-18T17:07:31.596Z,31.14
2022-11-18T17:09:41.258Z,31.01
2022-11-18T17:11:47.434Z,31.92
2022-11-18T17:13:58.045Z,32.22
2022-11-18T17:16:07.997Z,34.36
2022-11-18T17:18:13.761Z,32.74
2022-11-18T17:20:22.238Z,28.97
2022-11-18T17:22:30.721Z,30.62
2022-11-18T17:24:36.557Z,30.83
2022-11-18T17:28:10.811Z,33.97
2022-11-18T17:30:18.148Z,31.60
2022-11-18T17:32:23.803Z,38.83
2022-11-18T17:34:29.565Z,35.19
2022-11-18T17:36:36.261Z,38.06
2022-11-18T17:38:45.120Z,39.41
2022-11-18T17:40:57.714Z,39.41
2022-11-18T17:43:01.809Z,38.54
2022-11-18T17:45:12.725Z,43.00
2022-11-18T17:47:21.240Z,43.71
2022-11-18T17:49:27.915Z,42.65
2022-11-18T17:51:34.801Z,43.87
2022-11-18T17:53:43.499Z,47.52
2022-11-18T17:55:50.832Z,39.51
2022-11-18T17:57:59.261Z,42.41
2022-11-18T18:00:05.686Z,41.49
2022-11-18T18:02:18.891Z,40.78
2022-11-18T18:04:24.976Z,40.04
2022-11-18T18:06:30.720Z,42.38
2022-11-18T18:08:37.993Z,41.28
2022-11-18T18:10:46.377Z,40.88
2022-11-18T18:13:04.640Z,36.22
2022-11-18T18:15:12.480Z,35.01
2022-11-18T18:17:21.247Z,35.56
2022-11-18T18:19:28.331Z,36.79
2022-11-18T18:21:35.861Z,35.10
2022-11-18T18:23:41.663Z,36.31
2022-11-18T18:25:47.378Z,34.31
2022-11-18T18:27:54.056Z,34.50
2022-11-18T18:29:59.810Z,32.63
2022-11-18T18:32:06.458Z,33.46
2022-11-18T18:34:15.700Z,34.97
2022-11-18T18:36:25.345Z,37.82
2022-11-18T18:38:34.533Z,35.99
2022-11-18T18:40:41.100Z,34.96
2022-11-18T18:45:01.695Z,34.01
2022-11-18T18:47:08.335Z,34.86
2022-11-18T18:49:20.631Z,37.05
2022-11-18T18:51:26.894Z,37.96
2022-11-18T18:53:34.711Z,38.04
2022-11-18T18:55:44.718Z,37.40
2022-11-18T18:57:50.857Z,37.43
2022-11-18T19:00:00.046Z,37.72
2022-11-18T19:02:06.821Z,38.37
2022-11-18T19:04:16.786Z,36.20
2022-11-18T19:06:52.003Z,34.30
2022-11-18T19:08:52.902Z,35.08
2022-11-18T19:10:58.676Z,34.67
2022-11-18T19:13:02.681Z,34.72
2022-11-18T19:15:14.039Z,34.32
2022-11-18T19:17:19.960Z,32.56
2022-11-18T19:19:42.901Z,29.56
2022-11-18T19:21:50.217Z,30.65
2022-11-18T19:23:56.803Z,32.59
2022-11-18T19:26:03.536Z,31.73
2022-11-18T19:28:09.313Z,30.63
2022-11-18T19:30:17.956Z,32.01
2022-11-18T19:32:24.619Z,33.96
2022-11-18T19:34:30.350Z,34.17
2022-11-18T19:36:37.432Z,34.85
2022-11-18T19:38:44.537Z,29.53
2022-11-18T19:40:50.490Z,26.05
2022-11-18T19:42:56.867Z,26.42
2022-11-18T19:45:03.481Z,26.93
2022-11-18T19:47:11.920Z,25.58
2022-11-18T19:49:18.070Z,24.18
2022-11-18T19:51:26.107Z,24.02
2022-11-18T19:53:39.264Z,24.42
2022-11-18T19:55:45.016Z,24.10
2022-11-18T19:57:51.731Z,22.64
2022-11-18T19:59:57.545Z,22.63
2022-11-18T20:02:03.705Z,23.88
2022-11-18T20:04:12.962Z,24.96
2022-11-18T20:06:20.659Z,24.89
2022-11-18T20:08:28.233Z,26.25
2022-11-18T20:10:35.090Z,27.30
2022-11-18T20:12:40.942Z,27.24
2022-11-18T20:14:46.698Z,27.77
2022-11-18T20:16:54.599Z,26.55
2022-11-18T20:19:09.315Z,24.78
2022-11-18T20:21:23.037Z,26.79
2022-11-18T20:23:29.513Z,26.10
2022-11-18T20:25:35.287Z,26.03
2022-11-18T20:27:41.166Z,23.95
2022-11-18T20:29:48.448Z,24.40
2022-11-18T20:31:55.287Z,22.92
2022-11-18T20:34:01.107Z,24.50
2022-11-18T20:36:10.501Z,22.96
2022-11-18T20:38:18.910Z,23.88
2022-11-18T20:40:24.652Z,21.21
2022-11-18T20:42:44.221Z,21.36
2022-11-18T20:44:50.334Z,20.63
2022-11-18T20:46:56.072Z,19.39
2022-11-18T20:49:19.541Z,20.01
2022-11-18T20:51:29.061Z,18.39
2022-11-18T20:53:38.943Z,19.91
2022-11-18T20:55:44.917Z,20.53
2022-11-18T20:57:51.663Z,20.61
2022-11-18T20:59:57.497Z,19.44
2022-11-18T21:02:03.488Z,21.37
2022-11-18T21:04:10.071Z,21.85
2022-11-18T21:06:17.880Z,21.73
2022-11-18T21:08:23.706Z,21.97
2022-11-18T21:10:33.568Z,20.39
2022-11-18T21:12:59.368Z,20.97
2022-11-18T21:15:02.914Z,20.96
2022-11-18T21:17:09.539Z,21.25
2022-11-18T21:19:16.807Z,20.54
2022-11-18T21:21:40.689Z,20.46
2022-11-18T21:23:47.356Z,22.04
2022-11-18T21:25:55.940Z,23.37
2022-11-18T21:28:02.093Z,23.48
2022-11-18T21:30:10.817Z,23.38
2022-11-18T21:32:19.067Z,23.79
2022-11-18T21:34:25.627Z,22.43
2022-11-18T21:36:32.654Z,23.13
2022-11-18T21:38:38.445Z,22.99
2022-11-18T21:40:44.297Z,21.22
2022-11-18T21:42:58.128Z,20.96
2022-11-18T21:45:03.946Z,21.96
2022-11-18T21:47:09.650Z,21.66
2022-11-18T21:49:16.612Z,22.32
2022-11-18T21:51:25.462Z,19.53
2022-11-18T21:53:32.069Z,19.95
2022-11-18T21:55:38.629Z,21.73
2022-11-18T21:57:44.612Z,20.47
2022-11-18T21:59:56.296Z,19.28
2022-11-18T22:02:02.833Z,19.45
2022-11-18T22:04:29.077Z,19.63
2022-11-18T22:06:37.153Z,18.56
2022-11-18T22:08:45.391Z,21.31
2022-11-18T22:10:51.144Z,20.84
2022-11-18T22:12:56.939Z,19.71
2022-11-18T22:15:06.273Z,20.08
2022-11-18T22:17:12.521Z,21.20
2022-11-18T22:19:18.170Z,21.47
2022-11-18T22:21:26.672Z,21.35
2022-11-18T22:23:35.443Z,21.08
2022-11-18T22:25:41.244Z,21.31
2022-11-18T22:27:47.748Z,21.51
2022-11-18T22:29:53.498Z,20.96
2022-11-18T22:32:02.070Z,20.72
2022-11-18T22:34:08.726Z,22.06
2022-11-18T22:36:17.998Z,22.70
2022-11-18T22:38:23.704Z,22.92
2022-11-18T22:40:30.362Z,23.45
2022-11-18T22:42:48.337Z,23.97
2022-11-18T22:44:54.090Z,24.04
2022-11-18T22:47:03.293Z,24.26
2022-11-18T22:49:10.921Z,24.50
2022-11-18T22:51:16.690Z,24.54
2022-11-18T22:53:23.334Z,25.21
2022-11-18T22:55:29.094Z,25.34
2022-11-18T22:57:36.962Z,26.25
2022-11-18T22:59:43.584Z,26.79
2022-11-18T23:01:49.350Z,27.07
2022-11-18T23:03:57.723Z,27.51
2022-11-18T23:06:06.236Z,27.28
2022-11-18T23:08:11.938Z,27.88
2022-11-18T23:10:17.896Z,26.81
2022-11-18T23:12:36.897Z,27.94
2022-11-18T23:14:42.690Z,28.67
2022-11-18T23:16:48.634Z,27.83
2022-11-18T23:18:57.728Z,26.13
2022-11-18T23:21:05.891Z,26.25
2022-11-18T23:23:11.616Z,25.78
2022-11-18T23:25:18.441Z,25.06
2022-11-18T23:27:24.132Z,26.69
2022-11-18T23:29:30.051Z,26.88
2022-11-18T23:31:37.097Z,25.74
2022-11-18T23:33:44.570Z,26.20
2022-11-18T23:35:57.872Z,25.92
2022-11-18T23:38:04.406Z,25.74
2022-11-18T23:40:12.536Z,26.01
2022-11-18T23:42:18.217Z,25.44
2022-11-18T23:44:45.032Z,26.17
2022-11-18T23:46:50.730Z,25.47
2022-11-18T23:48:57.059Z,26.02
2022-11-18T23:51:09.642Z,23.93
2022-11-18T23:53:15.378Z,24.02
2022-11-18T23:55:21.114Z,24.25
2022-11-18T23:57:30.545Z,24.97
2022-11-18T23:59:36.756Z,25.17
